Eleven Mile, Pennsylvania
Current Conditions -  °F | °C
As of 8:56 AM on Thursday 30 Oct 2014 (Local Time) from KELZ Reporting Station
Overcast Overcast  
Wind Chill: 35°   Ceiling: 2400
Heat Index: 39°   Visibility: 10mi
Dew Point: 36°   Wind: 6mph
Humidity: 89%   Direction: 330°NNW
Pressure: 30.04"   Gusts: NA
Location:  41.915°N, 77.8855°W
Report Text: KELZ 301256Z AUTO 33005KT 10SM SCT010 OVC024 04/02 A3004 RMK AO2 SLP185 T00390022
Loading
Personal Weather Stations






























Interactive Weather Map
Tropical Storm Tracking
New forecast layout! Learn more

10-Day Weather Forecast

Advertisements
Track Severe Weather on mobile